createdAt,value
2023-01-02T00:01:03.989Z,20.10
2023-01-02T00:02:51.240Z,19.33
2023-01-02T00:04:38.687Z,18.02
2023-01-02T00:06:26.767Z,24.05
2023-01-02T00:10:01.748Z,19.10
2023-01-02T00:11:49.283Z,23.23
2023-01-02T00:13:37.565Z,15.35
2023-01-02T00:15:24.796Z,20.48
2023-01-02T00:17:12.222Z,20.20
2023-01-02T00:18:59.531Z,41.22
2023-01-02T00:20:46.643Z,126.60
2023-01-02T00:22:34.149Z,149.18
2023-01-02T00:24:21.667Z,71.53
2023-01-02T00:26:09.338Z,31.45
2023-01-02T00:29:44.134Z,22.42
2023-01-02T00:31:31.381Z,22.77
2023-01-02T00:33:18.898Z,23.48
2023-01-02T00:35:06.626Z,20.38
2023-01-02T00:36:53.816Z,22.50
2023-01-02T00:38:41.546Z,22.80
2023-01-02T00:40:28.712Z,20.02
2023-01-02T00:42:15.802Z,21.02
2023-01-02T00:44:03.319Z,22.38
2023-01-02T00:45:50.557Z,20.77
2023-01-02T00:47:37.793Z,23.98
2023-01-02T00:49:25.238Z,19.42
2023-01-02T00:51:12.455Z,20.20
2023-01-02T00:52:59.595Z,32.63
2023-01-02T00:54:47.040Z,69.25
2023-01-02T00:56:34.181Z,75.50
2023-01-02T00:58:21.337Z,44.08
2023-01-02T01:00:09.173Z,34.95
2023-01-02T01:03:43.723Z,23.23
2023-01-02T01:05:31.188Z,20.25
2023-01-02T01:07:18.559Z,24.20
2023-01-02T01:09:05.815Z,19.55
2023-01-02T01:10:53.171Z,18.23
2023-01-02T01:12:40.301Z,17.38
2023-01-02T01:14:27.428Z,20.25
2023-01-02T01:16:18.488Z,14.95
2023-01-02T01:18:05.646Z,16.02
2023-01-02T01:19:52.923Z,16.27
2023-01-02T01:21:40.307Z,17.08
2023-01-02T01:23:27.412Z,18.35
2023-01-02T01:25:14.578Z,18.42
2023-01-02T01:27:02.019Z,19.45
2023-01-02T01:28:49.116Z,23.23
2023-01-02T01:30:36.257Z,18.92
2023-01-02T01:32:24.151Z,16.95
2023-01-02T01:34:14.948Z,14.82
2023-01-02T01:36:07.220Z,14.10
2023-01-02T01:37:54.618Z,15.90
2023-01-02T01:39:41.733Z,17.20
2023-01-02T01:41:29.184Z,14.30
2023-01-02T01:43:16.526Z,13.50
2023-01-02T01:45:04.441Z,16.10
2023-01-02T01:48:39.207Z,15.98
2023-01-02T01:50:32.476Z,13.88
2023-01-02T01:52:24.739Z,18.35
2023-01-02T01:54:16.075Z,15.27
2023-01-02T01:56:06.458Z,13.23
2023-01-02T01:57:58.830Z,40.03
2023-01-02T01:59:47.344Z,83.18
2023-01-02T02:01:34.554Z,28.95
2023-01-02T02:03:27.091Z,22.70
2023-01-02T02:05:18.637Z,21.25
2023-01-02T02:07:05.766Z,22.58
2023-01-02T02:09:09.792Z,19.35
2023-01-02T02:10:59.570Z,13.43
2023-01-02T02:12:46.698Z,20.90
2023-01-02T02:14:34.623Z,16.58
2023-01-02T02:16:35.602Z,20.42
2023-01-02T02:18:29.773Z,15.18
2023-01-02T02:20:30.394Z,18.70
2023-01-02T02:22:26.873Z,14.30
2023-01-02T02:24:41.596Z,15.88
2023-01-02T02:26:54.021Z,12.20
2023-01-02T02:29:13.009Z,14.23
2023-01-02T02:31:27.210Z,16.05
2023-01-02T02:33:31.376Z,13.10
2023-01-02T02:35:30.318Z,13.18
2023-01-02T02:37:26.473Z,14.82
2023-01-02T02:39:35.324Z,14.95
2023-01-02T02:41:56.974Z,13.32
2023-01-02T02:43:50.131Z,12.93
2023-01-02T02:46:29.314Z,13.23
2023-01-02T02:48:31.384Z,14.50
2023-01-02T02:50:39.820Z,18.52
2023-01-02T02:52:30.212Z,32.58
2023-01-02T02:54:43.776Z,38.30
2023-01-02T02:56:32.102Z,40.60
2023-01-02T02:58:20.961Z,26.52
2023-01-02T03:00:12.638Z,27.65
2023-01-02T03:01:59.847Z,29.27
2023-01-02T03:03:47.415Z,21.80
2023-01-02T03:05:36.247Z,18.10
2023-01-02T03:07:42.041Z,18.42
2023-01-02T03:09:35.052Z,37.67
2023-01-02T03:11:31.383Z,56.67
2023-01-02T03:13:41.328Z,41.67
2023-01-02T03:15:57.709Z,19.83
2023-01-02T03:17:54.037Z,15.02
2023-01-02T03:19:51.693Z,18.33
2023-01-02T03:23:42.734Z,22.00
2023-01-02T03:25:31.892Z,20.33
2023-01-02T03:27:24.808Z,18.02
2023-01-02T03:29:23.669Z,19.73
2023-01-02T03:31:17.617Z,21.55
2023-01-02T03:33:09.370Z,23.20
2023-01-02T03:35:00.634Z,20.88
2023-01-02T03:36:53.732Z,21.95
2023-01-02T03:38:47.386Z,18.30
2023-01-02T03:40:42.218Z,15.13
2023-01-02T03:43:00.138Z,17.48
2023-01-02T03:44:50.268Z,16.02
2023-01-02T03:46:59.367Z,16.88
2023-01-02T03:49:00.907Z,19.02
2023-01-02T03:50:54.987Z,18.00
2023-01-02T03:52:42.386Z,16.92
2023-01-02T03:54:30.234Z,16.30
2023-01-02T03:58:28.246Z,13.02
2023-01-02T04:00:20.081Z,12.10
2023-01-02T04:02:11.923Z,14.50
2023-01-02T04:04:12.229Z,13.10
2023-01-02T04:06:07.459Z,12.55
2023-01-02T04:08:10.235Z,13.88
2023-01-02T04:10:00.337Z,14.00
2023-01-02T04:11:59.691Z,12.50
2023-01-02T04:13:53.427Z,11.48
2023-01-02T04:15:43.434Z,13.38
2023-01-02T04:17:35.703Z,14.75
2023-01-02T04:19:40.554Z,13.63
2023-01-02T04:21:30.877Z,12.13
2023-01-02T04:23:32.983Z,10.90
2023-01-02T04:25:21.059Z,11.27
2023-01-02T04:27:14.494Z,13.38
2023-01-02T04:29:02.099Z,10.07
2023-01-02T04:30:55.664Z,12.93
2023-01-02T04:32:45.204Z,11.80
2023-01-02T04:34:36.293Z,11.65
2023-01-02T04:36:24.390Z,10.23
2023-01-02T04:38:12.459Z,11.70
2023-01-02T04:41:48.802Z,11.07
2023-01-02T04:43:36.258Z,11.13
2023-01-02T04:45:23.618Z,10.70
2023-01-02T04:47:10.820Z,12.82
2023-01-02T04:48:58.274Z,11.65
2023-01-02T04:50:45.965Z,10.68
2023-01-02T04:52:36.880Z,8.95
2023-01-02T04:54:25.040Z,9.70
2023-01-02T04:56:12.105Z,11.48
2023-01-02T04:57:59.449Z,9.75
2023-01-02T04:59:46.934Z,12.35
2023-01-02T05:01:34.249Z,13.00
2023-01-02T05:03:21.439Z,11.82
2023-01-02T05:05:09.253Z,9.15
2023-01-02T05:06:56.474Z,10.05
2023-01-02T05:08:43.838Z,10.90
2023-01-02T05:10:31.231Z,11.23
2023-01-02T05:12:18.370Z,13.82
2023-01-02T05:14:07.694Z,10.77
2023-01-02T05:15:57.035Z,12.70
2023-01-02T05:17:44.206Z,12.38
2023-01-02T05:19:31.546Z,9.23
2023-01-02T05:21:37.743Z,12.18
2023-01-02T05:23:43.693Z,11.35
2023-01-02T05:25:36.564Z,10.30
2023-01-02T05:27:24.491Z,8.60
2023-01-02T05:29:11.637Z,10.57
2023-01-02T05:31:00.598Z,9.70
2023-01-02T05:32:48.643Z,8.80
2023-01-02T05:36:24.642Z,10.65
2023-01-02T05:38:12.287Z,9.30
2023-01-02T05:40:00.119Z,12.25
2023-01-02T05:41:47.780Z,10.90
2023-01-02T05:43:37.218Z,11.68
2023-01-02T05:45:24.751Z,14.25
2023-01-02T05:47:16.422Z,14.65
2023-01-02T05:49:06.310Z,13.13
2023-01-02T05:50:53.666Z,12.25
2023-01-02T05:52:45.418Z,11.00
2023-01-02T05:54:33.379Z,13.82
2023-01-02T05:56:21.625Z,16.67
2023-01-02T05:58:08.710Z,14.15
2023-01-02T05:59:56.125Z,12.52
2023-01-02T06:01:43.408Z,13.02
2023-01-02T06:03:30.771Z,11.32
2023-01-02T06:05:18.681Z,10.70
2023-01-02T06:07:06.308Z,13.35
2023-01-02T06:08:53.916Z,13.60
2023-01-02T06:10:52.255Z,12.55
2023-01-02T06:12:39.617Z,12.77
2023-01-02T06:14:27.547Z,13.48
2023-01-02T06:16:15.042Z,11.55
2023-01-02T06:18:02.465Z,9.63
2023-01-02T06:19:53.977Z,11.63
2023-01-02T06:21:42.593Z,10.45
2023-01-02T06:23:29.822Z,11.70
2023-01-02T06:25:17.979Z,9.02
2023-01-02T06:27:05.346Z,10.00
2023-01-02T06:28:56.739Z,11.00
2023-01-02T06:30:43.923Z,11.85
2023-01-02T06:32:31.319Z,11.82
2023-01-02T06:34:18.409Z,7.10
2023-01-02T06:36:08.725Z,9.35
2023-01-02T06:37:56.169Z,8.43
2023-01-02T06:39:43.387Z,7.60
2023-01-02T06:41:30.786Z,8.13
2023-01-02T06:43:18.185Z,11.38
2023-01-02T06:45:06.115Z,10.13
2023-01-02T06:46:53.353Z,11.43
2023-01-02T06:48:41.670Z,10.23
2023-01-02T06:50:34.877Z,7.53
2023-01-02T06:52:23.008Z,11.85
2023-01-02T06:54:10.527Z,8.25
2023-01-02T06:55:59.068Z,9.00
2023-01-02T06:57:46.298Z,8.20
2023-01-02T06:59:33.842Z,10.40
2023-01-02T07:01:23.013Z,6.95
2023-01-02T07:03:10.283Z,7.55
2023-01-02T07:04:57.767Z,11.88
2023-01-02T07:06:44.867Z,12.00
2023-01-02T07:08:32.664Z,13.88
2023-01-02T07:10:20.073Z,10.15
2023-01-02T07:12:07.378Z,16.40
2023-01-02T07:13:55.812Z,24.05
2023-01-02T07:15:43.366Z,48.88
2023-01-02T07:17:31.974Z,36.78
2023-01-02T07:19:19.257Z,29.58
2023-01-02T07:21:08.176Z,19.27
2023-01-02T07:22:55.578Z,23.45
2023-01-02T07:24:42.759Z,33.20
2023-01-02T07:26:30.203Z,20.90
2023-01-02T07:28:18.155Z,15.85
2023-01-02T07:30:05.892Z,21.85
2023-01-02T07:31:53.431Z,12.65
2023-01-02T07:33:40.657Z,16.17
2023-01-02T07:35:27.855Z,12.10
2023-01-02T07:37:15.695Z,19.60
2023-01-02T07:39:03.121Z,13.80
2023-01-02T07:40:50.344Z,13.27
2023-01-02T07:42:37.682Z,11.15
2023-01-02T07:44:24.882Z,9.40
2023-01-02T07:46:13.177Z,9.55
2023-01-02T07:48:01.569Z,13.88
2023-01-02T07:49:48.663Z,10.27
2023-01-02T07:51:35.859Z,13.93
2023-01-02T07:53:23.651Z,9.70
2023-01-02T07:55:11.111Z,14.27
2023-01-02T07:56:58.308Z,30.70
2023-01-02T07:58:45.759Z,16.63
2023-01-02T08:00:32.925Z,14.95
2023-01-02T08:02:20.390Z,13.85
2023-01-02T08:04:08.012Z,6.95
2023-01-02T08:05:55.265Z,8.68
2023-01-02T08:07:44.952Z,9.15
2023-01-02T08:09:32.719Z,9.50
2023-01-02T08:11:22.389Z,8.48
2023-01-02T08:13:09.792Z,7.95
2023-01-02T08:14:57.442Z,8.15
2023-01-02T08:16:45.798Z,10.32
2023-01-02T08:18:33.414Z,7.78
2023-01-02T08:20:20.963Z,9.23
2023-01-02T08:22:08.112Z,7.82
2023-01-02T08:23:55.311Z,10.30
2023-01-02T08:25:42.697Z,8.20
2023-01-02T08:27:29.972Z,10.13
2023-01-02T08:29:17.398Z,8.48
2023-01-02T08:31:16.849Z,9.30
2023-01-02T08:33:04.153Z,7.68
2023-01-02T08:34:51.438Z,6.80
2023-01-02T08:36:38.801Z,6.93
2023-01-02T08:38:26.073Z,6.10
2023-01-02T08:40:13.417Z,7.95
2023-01-02T08:42:00.934Z,11.00
2023-01-02T08:43:48.059Z,6.63
2023-01-02T08:45:35.554Z,6.50
2023-01-02T08:49:12.304Z,6.10
2023-01-02T08:50:59.544Z,8.15
2023-01-02T08:52:47.117Z,10.45
2023-01-02T08:54:35.327Z,11.70
2023-01-02T08:56:25.416Z,7.93
2023-01-02T08:58:13.117Z,6.25
2023-01-02T09:00:00.417Z,9.90
2023-01-02T09:01:47.911Z,9.63
2023-01-02T09:05:23.410Z,7.75
2023-01-02T09:07:10.786Z,8.60
2023-01-02T09:08:59.517Z,10.68
2023-01-02T09:10:46.870Z,9.88
2023-01-02T09:12:34.349Z,11.95
2023-01-02T09:16:10.785Z,9.35
2023-01-02T09:17:58.245Z,8.55
2023-01-02T09:19:45.806Z,11.07
2023-01-02T09:21:34.718Z,14.52
2023-01-02T09:23:22.005Z,25.60
2023-01-02T09:25:09.908Z,32.78
2023-01-02T09:26:57.207Z,20.50
2023-01-02T09:28:44.826Z,13.43
2023-01-02T09:32:20.356Z,13.65
2023-01-02T09:34:07.864Z,19.92
2023-01-02T09:35:55.561Z,24.30
2023-01-02T09:37:42.920Z,15.60
2023-01-02T09:39:32.709Z,19.50
2023-01-02T09:41:23.421Z,21.77
2023-01-02T09:43:11.466Z,11.25
2023-01-02T09:45:08.585Z,8.73
2023-01-02T09:47:12.096Z,8.48
2023-01-02T09:49:01.757Z,32.67
2023-01-02T09:50:50.470Z,12.07
2023-01-02T09:52:43.124Z,8.98
2023-01-02T09:54:33.418Z,7.53
2023-01-02T09:56:33.889Z,5.80
2023-01-02T09:58:40.494Z,6.80
2023-01-02T10:00:35.650Z,6.88
2023-01-02T10:02:51.635Z,9.68
2023-01-02T10:04:58.386Z,9.52
2023-01-02T10:06:57.327Z,9.13
2023-01-02T10:08:59.724Z,6.50
2023-01-02T10:11:09.846Z,6.13
2023-01-02T10:13:06.163Z,7.88
2023-01-02T10:15:01.031Z,9.80
2023-01-02T10:16:57.718Z,11.48
2023-01-02T10:18:49.312Z,10.98
2023-01-02T10:20:40.636Z,8.40
2023-01-02T10:22:47.770Z,12.68
2023-01-02T10:25:03.492Z,9.43
2023-01-02T10:26:53.989Z,7.47
2023-01-02T10:29:19.353Z,8.02
2023-01-02T10:31:16.555Z,7.15
2023-01-02T10:33:36.649Z,8.82
2023-01-02T10:35:42.857Z,7.25
2023-01-02T10:37:30.768Z,9.50
2023-01-02T10:39:25.016Z,6.13
2023-01-02T10:41:12.528Z,7.30
2023-01-02T10:43:00.850Z,5.78
2023-01-02T10:44:48.395Z,7.03
2023-01-02T10:46:37.805Z,7.57
2023-01-02T10:48:30.124Z,7.28
2023-01-02T10:50:25.920Z,7.38
2023-01-02T10:52:24.914Z,10.57
2023-01-02T10:54:12.353Z,15.02
2023-01-02T10:56:05.796Z,32.20
2023-01-02T10:57:53.534Z,20.15
2023-01-02T10:59:45.515Z,13.25
2023-01-02T11:01:33.785Z,14.68
2023-01-02T11:03:23.833Z,9.68
2023-01-02T11:05:20.692Z,11.88
2023-01-02T11:07:26.230Z,15.77
2023-01-02T11:09:21.592Z,29.08
2023-01-02T11:11:17.379Z,26.13
2023-01-02T11:13:13.430Z,12.38
2023-01-02T11:15:13.724Z,11.13
2023-01-02T11:17:09.129Z,10.10
2023-01-02T11:18:59.095Z,10.60
2023-01-02T11:20:53.716Z,12.02
2023-01-02T11:22:41.877Z,9.10
2023-01-02T11:24:30.380Z,9.07
2023-01-02T11:26:23.063Z,12.13
2023-01-02T11:28:28.996Z,11.13
2023-01-02T11:30:31.475Z,11.35
2023-01-02T11:32:26.119Z,11.68
2023-01-02T11:34:34.993Z,9.57
2023-01-02T11:36:22.953Z,9.90
2023-01-02T11:38:44.375Z,8.50
2023-01-02T11:40:33.791Z,11.00
2023-01-02T11:42:48.174Z,10.75
2023-01-02T11:45:08.238Z,14.55
2023-01-02T11:46:57.395Z,13.57
2023-01-02T11:48:45.277Z,14.00
2023-01-02T11:50:36.758Z,8.43
2023-01-02T11:52:34.978Z,6.85
2023-01-02T11:54:38.221Z,10.70
2023-01-02T11:56:35.183Z,8.48
2023-01-02T11:58:25.487Z,5.15
2023-01-02T12:00:16.059Z,9.88
2023-01-02T12:02:44.732Z,5.82
2023-01-02T12:04:32.788Z,7.05
2023-01-02T12:07:01.748Z,13.43
2023-01-02T12:09:11.339Z,8.00
2023-01-02T12:11:43.139Z,8.13
2023-01-02T12:14:03.127Z,8.88
2023-01-02T12:16:34.498Z,6.68
2023-01-02T12:18:41.709Z,8.30
2023-01-02T12:20:41.604Z,12.00
2023-01-02T12:22:32.358Z,17.77
2023-01-02T12:24:58.292Z,18.20
2023-01-02T12:27:02.509Z,18.08
2023-01-02T12:29:13.418Z,14.88
2023-01-02T12:31:36.528Z,12.18
2023-01-02T12:33:38.436Z,6.47
2023-01-02T12:36:02.832Z,10.02
2023-01-02T12:37:58.601Z,7.47
2023-01-02T12:40:17.205Z,19.98
2023-01-02T12:42:31.545Z,23.75
2023-01-02T12:44:37.318Z,19.27
2023-01-02T12:46:39.439Z,7.72
2023-01-02T12:48:57.220Z,16.42
2023-01-02T12:51:20.768Z,7.38
2023-01-02T12:53:34.068Z,10.73
2023-01-02T12:55:53.212Z,9.70
2023-01-02T12:58:05.393Z,10.20
2023-01-02T13:00:14.874Z,10.63
2023-01-02T13:02:16.355Z,11.80
2023-01-02T13:04:04.312Z,12.27
2023-01-02T13:05:58.687Z,8.13
2023-01-02T13:07:53.381Z,9.30
2023-01-02T13:09:48.280Z,7.00
2023-01-02T13:11:41.077Z,15.05
2023-01-02T13:13:35.106Z,30.40
2023-01-02T13:15:41.434Z,11.30
2023-01-02T13:17:50.601Z,16.23
2023-01-02T13:19:44.639Z,17.52
2023-01-02T13:21:44.185Z,16.23
2023-01-02T13:23:40.793Z,16.45
2023-01-02T13:25:30.906Z,15.05
2023-01-02T13:27:18.813Z,12.88
2023-01-02T13:29:09.729Z,12.25
2023-01-02T13:31:44.040Z,16.00
2023-01-02T13:33:39.128Z,10.85
2023-01-02T13:35:26.980Z,15.90
2023-01-02T13:37:18.606Z,16.13
2023-01-02T13:39:22.781Z,16.60
2023-01-02T13:41:17.268Z,12.95
2023-01-02T13:43:09.016Z,7.88
2023-01-02T13:44:59.388Z,15.93
2023-01-02T13:47:03.100Z,12.85
2023-01-02T13:48:55.801Z,11.48
2023-01-02T13:50:45.106Z,6.57
2023-01-02T13:52:33.160Z,7.78
2023-01-02T13:54:34.278Z,11.80
2023-01-02T13:56:26.776Z,8.02
2023-01-02T13:58:20.698Z,11.30
2023-01-02T14:00:17.650Z,11.20
2023-01-02T14:02:16.315Z,12.82
2023-01-02T14:04:13.684Z,14.13
2023-01-02T14:06:24.889Z,14.38
2023-01-02T14:08:33.578Z,15.75
2023-01-02T14:10:30.062Z,11.73
2023-01-02T14:12:17.669Z,11.30
2023-01-02T14:14:34.228Z,12.35
2023-01-02T14:18:31.064Z,11.23
2023-01-02T14:20:18.927Z,11.77
2023-01-02T14:22:16.876Z,19.10
2023-01-02T14:24:16.851Z,22.20
2023-01-02T14:26:06.184Z,25.90
2023-01-02T14:28:04.884Z,18.20
2023-01-02T14:29:58.641Z,19.60
2023-01-02T14:31:47.827Z,18.65
2023-01-02T14:33:36.508Z,10.88
2023-01-02T14:35:31.383Z,13.30
2023-01-02T14:37:41.385Z,16.08
2023-01-02T14:39:35.560Z,18.45
2023-01-02T14:42:09.164Z,14.65
2023-01-02T14:43:57.637Z,11.27
2023-01-02T14:45:59.342Z,22.48
2023-01-02T14:47:54.465Z,10.43
2023-01-02T14:49:43.864Z,12.95
2023-01-02T14:51:47.897Z,25.75
2023-01-02T14:53:55.545Z,13.52
2023-01-02T14:55:45.184Z,12.45
2023-01-02T14:57:40.787Z,15.23
2023-01-02T14:59:36.083Z,12.50
2023-01-02T15:01:43.640Z,11.85
2023-01-02T15:03:51.110Z,8.98
2023-01-02T15:05:49.675Z,11.82
2023-01-02T15:07:42.837Z,11.48
2023-01-02T15:09:34.935Z,10.65
2023-01-02T15:11:44.344Z,12.95
2023-01-02T15:13:32.620Z,11.95
2023-01-02T15:15:47.616Z,16.17
2023-01-02T15:17:35.354Z,13.80
2023-01-02T15:19:27.795Z,19.02
2023-01-02T15:21:24.517Z,28.55
2023-01-02T15:23:21.048Z,30.40
2023-01-02T15:25:13.454Z,37.63
2023-01-02T15:27:36.209Z,35.50
2023-01-02T15:29:29.180Z,12.30
2023-01-02T15:31:19.534Z,16.90
2023-01-02T15:33:31.437Z,14.77
2023-01-02T15:35:23.931Z,15.38
2023-01-02T15:37:13.844Z,12.85
2023-01-02T15:39:12.126Z,16.02
2023-01-02T15:41:00.129Z,16.05
2023-01-02T15:43:07.373Z,15.57
2023-01-02T15:45:10.301Z,13.73
2023-01-02T15:46:59.159Z,14.18
2023-01-02T15:48:48.169Z,14.45
2023-01-02T15:50:38.214Z,15.07
2023-01-02T15:52:31.283Z,10.93
2023-01-02T15:54:19.145Z,15.52
2023-01-02T15:56:12.119Z,10.75
2023-01-02T15:57:59.563Z,16.60
2023-01-02T15:59:47.958Z,13.73
2023-01-02T16:01:45.531Z,12.90
2023-01-02T16:04:02.638Z,13.32
2023-01-02T16:05:55.383Z,15.98
2023-01-02T16:07:48.821Z,16.13
2023-01-02T16:09:36.356Z,14.95
2023-01-02T16:11:24.026Z,16.88
2023-01-02T16:13:41.242Z,17.13
2023-01-02T16:15:31.666Z,26.55
2023-01-02T16:17:27.773Z,22.75
2023-01-02T16:19:23.747Z,22.25
2023-01-02T16:21:14.377Z,17.63
2023-01-02T16:23:07.506Z,14.27
2023-01-02T16:25:16.477Z,14.35
2023-01-02T16:27:05.084Z,16.13
2023-01-02T16:28:52.399Z,14.77
2023-01-02T16:30:46.003Z,16.77
2023-01-02T16:32:33.875Z,19.05
2023-01-02T16:36:21.066Z,23.98
2023-01-02T16:38:22.949Z,16.73
2023-01-02T16:40:59.870Z,18.58
2023-01-02T16:43:02.847Z,13.90
2023-01-02T16:44:56.524Z,16.23
2023-01-02T16:46:46.262Z,22.67
2023-01-02T16:48:34.421Z,27.73
2023-01-02T16:50:23.515Z,34.65
2023-01-02T16:52:10.843Z,32.70
2023-01-02T16:53:58.574Z,26.38
2023-01-02T16:55:45.974Z,25.35
2023-01-02T16:57:33.929Z,21.23
2023-01-02T16:59:21.503Z,20.67
2023-01-02T17:01:16.151Z,25.80
2023-01-02T17:03:03.429Z,30.75
2023-01-02T17:04:51.147Z,17.52
2023-01-02T17:06:38.305Z,26.42
2023-01-02T17:08:25.810Z,26.67
2023-01-02T17:10:13.335Z,30.90
2023-01-02T17:12:00.946Z,27.40
2023-01-02T17:13:48.586Z,24.73
2023-01-02T17:15:36.140Z,21.20
2023-01-02T17:17:23.316Z,23.08
2023-01-02T17:19:10.639Z,21.63
2023-01-02T17:22:45.555Z,46.17
2023-01-02T17:24:32.698Z,36.90
2023-01-02T17:26:21.605Z,25.75
2023-01-02T17:28:08.943Z,26.27
2023-01-02T17:29:56.219Z,18.40
2023-01-02T17:31:44.063Z,22.55
2023-01-02T17:33:31.252Z,24.50
2023-01-02T17:35:18.831Z,21.25
2023-01-02T17:37:06.626Z,20.35
2023-01-02T17:38:54.640Z,22.05
2023-01-02T17:40:41.869Z,21.52
2023-01-02T17:42:31.500Z,23.90
2023-01-02T17:44:19.392Z,22.98
2023-01-02T17:48:18.606Z,32.47
2023-01-02T17:50:11.248Z,22.10
2023-01-02T17:51:58.987Z,26.05
2023-01-02T17:53:47.966Z,23.58
2023-01-02T17:55:35.653Z,27.95
2023-01-02T17:57:23.751Z,28.27
2023-01-02T17:59:13.002Z,28.98
2023-01-02T18:01:01.167Z,28.20
2023-01-02T18:02:49.107Z,31.90
2023-01-02T18:04:36.966Z,29.02
2023-01-02T18:06:24.412Z,30.20
2023-01-02T18:08:11.581Z,30.10
2023-01-02T18:10:08.519Z,26.40
2023-01-02T18:11:56.693Z,21.85
2023-01-02T18:13:52.592Z,28.75
2023-01-02T18:15:40.292Z,32.67
2023-01-02T18:17:30.500Z,29.63
2023-01-02T18:19:23.103Z,27.48
2023-01-02T18:21:20.464Z,28.38
2023-01-02T18:23:15.098Z,26.88
2023-01-02T18:25:16.718Z,24.42
2023-01-02T18:27:14.570Z,20.45
2023-01-02T18:29:09.666Z,21.73
2023-01-02T18:30:59.956Z,24.23
2023-01-02T18:32:49.349Z,28.50
2023-01-02T18:34:48.198Z,22.00
2023-01-02T18:36:37.133Z,25.80
2023-01-02T18:38:29.387Z,20.45
2023-01-02T18:40:27.725Z,19.80
2023-01-02T18:42:22.078Z,21.92
2023-01-02T18:44:29.143Z,23.55
2023-01-02T18:46:21.418Z,26.50
2023-01-02T18:48:18.346Z,22.10
2023-01-02T18:50:34.546Z,27.33
2023-01-02T18:52:30.563Z,23.33
2023-01-02T18:54:29.748Z,25.35
2023-01-02T18:56:26.308Z,25.63
2023-01-02T18:58:36.632Z,20.20
2023-01-02T19:00:30.099Z,23.77
2023-01-02T19:02:35.041Z,20.92
2023-01-02T19:04:32.952Z,23.65
2023-01-02T19:06:26.826Z,19.73
2023-01-02T19:08:22.874Z,21.20
2023-01-02T19:10:18.583Z,20.73
2023-01-02T19:12:33.540Z,19.38
2023-01-02T19:14:25.380Z,20.52
2023-01-02T19:16:18.472Z,19.38
2023-01-02T19:18:14.611Z,21.83
2023-01-02T19:20:02.355Z,20.80
2023-01-02T19:21:51.041Z,16.83
2023-01-02T19:23:50.083Z,19.70
2023-01-02T19:25:44.870Z,23.90
2023-01-02T19:27:37.793Z,19.33
2023-01-02T19:29:26.508Z,18.98
2023-01-02T19:31:16.590Z,18.65
2023-01-02T19:33:32.290Z,18.85
2023-01-02T19:35:25.532Z,27.90
2023-01-02T19:37:13.412Z,31.65
2023-01-02T19:39:00.957Z,26.02
2023-01-02T19:40:48.145Z,20.38
2023-01-02T19:42:38.675Z,21.35
2023-01-02T19:44:26.017Z,21.75
2023-01-02T19:46:13.311Z,21.73
2023-01-02T19:48:00.784Z,24.90
2023-01-02T19:49:48.251Z,22.02
2023-01-02T19:51:35.902Z,21.95
2023-01-02T19:53:23.689Z,23.67
2023-01-02T19:55:12.043Z,22.73
2023-01-02T19:56:59.913Z,21.05
2023-01-02T19:58:49.626Z,20.50
2023-01-02T20:00:37.044Z,20.50
2023-01-02T20:02:26.119Z,24.00
2023-01-02T20:04:14.290Z,22.10
2023-01-02T20:06:02.718Z,23.95
2023-01-02T20:07:52.125Z,20.67
2023-01-02T20:09:40.072Z,20.80
2023-01-02T20:11:46.036Z,20.10
2023-01-02T20:13:33.205Z,21.20
2023-01-02T20:15:26.082Z,21.25
2023-01-02T20:17:13.348Z,22.15
2023-01-02T20:19:01.741Z,23.83
2023-01-02T20:24:23.801Z,22.83
2023-01-02T20:26:11.998Z,19.85
2023-01-02T20:28:00.266Z,21.67
2023-01-02T20:29:49.282Z,20.40
2023-01-02T20:31:37.059Z,23.65
2023-01-02T20:33:24.347Z,21.67
2023-01-02T20:35:11.834Z,21.05
2023-01-02T20:38:46.663Z,23.73
2023-01-02T20:40:33.934Z,21.15
2023-01-02T20:42:21.996Z,18.35
2023-01-02T20:44:11.463Z,20.17
2023-01-02T20:45:58.733Z,19.40
2023-01-02T20:47:46.534Z,20.15
2023-01-02T20:49:33.915Z,20.35
2023-01-02T20:51:21.429Z,20.27
2023-01-02T20:53:08.938Z,23.05
2023-01-02T20:54:56.224Z,25.50
2023-01-02T20:56:43.389Z,23.30
2023-01-02T20:58:31.238Z,19.75
2023-01-02T21:00:19.414Z,23.98
2023-01-02T21:02:07.091Z,22.70
2023-01-02T21:03:54.805Z,18.13
2023-01-02T21:05:42.203Z,22.70
2023-01-02T21:07:29.764Z,22.08
2023-01-02T21:11:06.397Z,23.00
2023-01-02T21:13:10.688Z,22.27
2023-01-02T21:14:58.439Z,21.85
2023-01-02T21:16:45.755Z,32.08
2023-01-02T21:18:35.554Z,24.67
2023-01-02T21:20:23.269Z,24.35
2023-01-02T21:22:10.737Z,22.63
2023-01-02T21:23:58.067Z,23.75
2023-01-02T21:25:48.234Z,21.30
2023-01-02T21:27:35.974Z,19.35
2023-01-02T21:29:23.539Z,21.70
2023-01-02T21:31:11.888Z,20.58
2023-01-02T21:34:46.316Z,24.05
2023-01-02T21:36:36.153Z,21.63
2023-01-02T21:38:24.703Z,22.95
2023-01-02T21:40:12.370Z,25.38
2023-01-02T21:42:18.482Z,24.15
2023-01-02T21:44:05.949Z,24.20
2023-01-02T21:45:53.677Z,30.38
2023-01-02T21:47:41.679Z,28.73
2023-01-02T21:49:29.213Z,26.85
2023-01-02T21:51:16.604Z,28.33
2023-01-02T21:54:51.624Z,18.98
2023-01-02T21:56:38.845Z,19.05
2023-01-02T21:58:27.077Z,20.75
2023-01-02T22:00:17.146Z,21.42
2023-01-02T22:02:06.671Z,21.15
2023-01-02T22:03:57.604Z,20.23
2023-01-02T22:05:44.985Z,19.50
2023-01-02T22:07:33.623Z,18.40
2023-01-02T22:09:22.644Z,21.48
2023-01-02T22:11:28.344Z,24.10
2023-01-02T22:13:16.114Z,23.15
2023-01-02T22:15:05.757Z,20.02
2023-01-02T22:16:54.560Z,20.30
2023-01-02T22:18:41.809Z,16.75
2023-01-02T22:20:29.527Z,16.55
2023-01-02T22:22:16.961Z,18.98
2023-01-02T22:24:04.429Z,16.52
2023-01-02T22:25:52.969Z,17.40
2023-01-02T22:27:40.436Z,19.88
2023-01-02T22:29:51.457Z,19.00
2023-01-02T22:31:36.892Z,18.00
2023-01-02T22:35:12.625Z,16.50
2023-01-02T22:37:01.121Z,18.67
2023-01-02T22:39:17.610Z,20.15
2023-01-02T22:40:56.135Z,18.23
2023-01-02T22:43:01.560Z,18.70
2023-01-02T22:44:50.529Z,20.27
2023-01-02T22:48:37.261Z,17.75
2023-01-02T22:50:30.107Z,18.30
2023-01-02T22:52:17.515Z,17.80
2023-01-02T22:54:10.850Z,20.00
2023-01-02T22:55:58.804Z,17.85
2023-01-02T22:57:51.470Z,20.52
2023-01-02T22:59:40.793Z,19.02
2023-01-02T23:01:33.262Z,19.90
2023-01-02T23:03:20.435Z,19.95
2023-01-02T23:05:18.609Z,17.30
2023-01-02T23:07:23.490Z,19.05
2023-01-02T23:09:11.382Z,19.35
2023-01-02T23:10:59.595Z,20.48
2023-01-02T23:12:46.780Z,20.20
2023-01-02T23:14:34.478Z,18.05
2023-01-02T23:16:40.438Z,19.63
2023-01-02T23:18:49.161Z,20.90
2023-01-02T23:20:41.789Z,20.17
2023-01-02T23:22:29.259Z,18.55
2023-01-02T23:24:19.267Z,19.65
2023-01-02T23:26:07.396Z,18.45
2023-01-02T23:27:54.948Z,20.02
2023-01-02T23:29:42.289Z,16.88
2023-01-02T23:31:29.508Z,17.33
2023-01-02T23:33:17.041Z,23.80
2023-01-02T23:35:05.254Z,19.73
2023-01-02T23:36:53.907Z,17.55
2023-01-02T23:38:41.312Z,17.58
2023-01-02T23:40:34.009Z,18.38
2023-01-02T23:42:21.535Z,17.58
2023-01-02T23:44:10.795Z,17.48
2023-01-02T23:45:58.133Z,16.52
2023-01-02T23:47:45.363Z,16.55
2023-01-02T23:49:33.078Z,19.02
2023-01-02T23:51:20.296Z,17.17
2023-01-02T23:53:07.403Z,19.92
2023-01-02T23:54:54.896Z,16.40
2023-01-02T23:56:44.294Z,18.25
2023-01-02T23:58:31.914Z,18.70
